RIC weather

Richmond International Airport
Richmond, Virginia, United States

Public forecast

Using degrees Fahrenheit for public forecast. Weather courtesy of forecast.io.

METAR (pilot weather report)

Retrieved 2018/10/17 23:54 UTC (17 minutes ago):

KRIC 172354Z 23003KT 10SM FEW300 14/09 A3011 RMK AO2 SLP199 T01390089 10222 20133 53022

TAF (pilot weather forecast)

Forecast is more than 12 hours old.

Retrieved 2018/10/17 00:24 UTC (24 hours ago):

TAF KRIC 172320Z 1800/1824 27005KT P6SM SKC FM180300 34007KT P6SM SKC FM182300 01005KT P6SM SKC